createdAt,value
2022-12-26T00:01:16.000Z,98002
2022-12-26T00:02:42.000Z,97996
2022-12-26T00:04:49.000Z,97994
2022-12-26T00:06:20.000Z,97998
2022-12-26T00:08:26.000Z,97998
2022-12-26T00:09:52.000Z,97998
2022-12-26T00:11:58.000Z,97983
2022-12-26T00:13:25.000Z,97974
2022-12-26T00:15:47.000Z,97971
2022-12-26T00:17:13.000Z,97972
2022-12-26T00:19:19.000Z,97982
2022-12-26T00:22:10.000Z,97990
2022-12-26T00:23:37.000Z,97998
2022-12-26T00:25:43.000Z,98003
2022-12-26T00:27:09.000Z,97997
2022-12-26T00:29:15.000Z,97999
2022-12-26T00:30:42.000Z,97999
2022-12-26T00:32:48.000Z,97990
2022-12-26T00:34:15.000Z,97995
2022-12-26T00:36:21.000Z,98001
2022-12-26T00:37:47.000Z,97990
2022-12-26T00:39:53.000Z,97986
2022-12-26T00:41:20.000Z,97983
2022-12-26T00:43:26.000Z,97984
2022-12-26T00:44:52.000Z,97980
2022-12-26T00:46:59.000Z,97989
2022-12-26T00:48:25.000Z,97985
2022-12-26T00:50:31.000Z,97978
2022-12-26T00:52:01.000Z,97987
2022-12-26T00:54:07.000Z,97982
2022-12-26T00:55:34.000Z,97976
2022-12-26T00:57:40.000Z,97976
2022-12-26T01:00:31.000Z,97975
2022-12-26T01:01:58.000Z,97968
2022-12-26T01:04:04.000Z,97972
2022-12-26T01:05:31.000Z,97971
2022-12-26T01:07:37.000Z,97975
2022-12-26T01:09:50.000Z,97968
2022-12-26T01:11:56.000Z,97959
2022-12-26T01:13:23.000Z,97972
2022-12-26T01:15:29.000Z,97970
2022-12-26T01:16:55.000Z,97968
2022-12-26T01:19:02.000Z,97980
2022-12-26T01:20:28.000Z,97984
2022-12-26T01:22:34.000Z,97975
2022-12-26T01:24:01.000Z,97972
2022-12-26T01:26:07.000Z,97973
2022-12-26T01:27:46.000Z,97977
2022-12-26T01:29:52.000Z,97979
2022-12-26T01:31:18.000Z,97981
2022-12-26T01:33:24.000Z,97983
2022-12-26T01:34:51.000Z,97982
2022-12-26T01:36:57.000Z,97982
2022-12-26T01:39:49.000Z,97997
2022-12-26T01:41:15.000Z,97997
2022-12-26T01:43:21.000Z,97993
2022-12-26T01:44:48.000Z,97999
2022-12-26T01:46:54.000Z,97997
2022-12-26T01:48:20.000Z,98001
2022-12-26T01:50:27.000Z,98006
2022-12-26T01:51:53.000Z,98013
2022-12-26T01:53:59.000Z,98000
2022-12-26T01:56:08.000Z,98000
2022-12-26T01:58:14.000Z,97994
2022-12-26T01:59:41.000Z,97996
2022-12-26T02:01:47.000Z,98003
2022-12-26T02:03:14.000Z,98004
2022-12-26T02:05:20.000Z,97997
2022-12-26T02:06:46.000Z,98005
2022-12-26T02:08:52.000Z,98013
2022-12-26T02:10:19.000Z,98017
2022-12-26T02:12:25.000Z,98022
2022-12-26T02:14:04.000Z,98020
2022-12-26T02:16:10.000Z,98021
2022-12-26T02:19:01.000Z,98019
2022-12-26T02:20:28.000Z,98009
2022-12-26T02:22:34.000Z,98025
2022-12-26T02:24:00.000Z,98032
2022-12-26T02:26:07.000Z,98031
2022-12-26T02:27:33.000Z,98028
2022-12-26T02:29:39.000Z,98027
2022-12-26T02:31:06.000Z,98035
2022-12-26T02:33:12.000Z,98029
2022-12-26T02:34:38.000Z,98037
2022-12-26T02:36:45.000Z,98029
2022-12-26T02:38:11.000Z,98036
2022-12-26T02:40:17.000Z,98032
2022-12-26T02:41:44.000Z,98036
2022-12-26T02:43:50.000Z,98039
2022-12-26T02:45:16.000Z,98036
2022-12-26T02:47:23.000Z,98033
2022-12-26T02:48:49.000Z,98030
2022-12-26T02:50:55.000Z,98027
2022-12-26T02:52:22.000Z,98024
2022-12-26T02:54:28.000Z,98023
2022-12-26T02:57:19.000Z,98025
2022-12-26T02:58:45.000Z,98028
2022-12-26T03:00:51.000Z,98037
2022-12-26T03:02:18.000Z,98034
2022-12-26T03:04:25.000Z,98032
2022-12-26T03:05:51.000Z,98032
2022-12-26T03:07:57.000Z,98043
2022-12-26T03:09:24.000Z,98048
2022-12-26T03:11:30.000Z,98048
2022-12-26T03:12:56.000Z,98045
2022-12-26T03:15:03.000Z,98039
2022-12-26T03:16:29.000Z,98039
2022-12-26T03:18:35.000Z,98040
2022-12-26T03:20:26.000Z,98041
2022-12-26T03:22:32.000Z,98047
2022-12-26T03:23:59.000Z,98048
2022-12-26T03:26:05.000Z,98042
2022-12-26T03:27:31.000Z,98044
2022-12-26T03:29:37.000Z,98047
2022-12-26T03:31:04.000Z,98038
2022-12-26T03:33:10.000Z,98034
2022-12-26T03:36:01.000Z,98040
2022-12-26T03:37:28.000Z,98036
2022-12-26T03:39:55.000Z,98030
2022-12-26T03:41:21.000Z,98027
2022-12-26T03:43:28.000Z,98037
2022-12-26T03:44:54.000Z,98050
2022-12-26T03:47:00.000Z,98048
2022-12-26T03:48:27.000Z,98048
2022-12-26T03:50:33.000Z,98042
2022-12-26T03:51:59.000Z,98041
2022-12-26T03:54:06.000Z,98040
2022-12-26T03:55:32.000Z,98032
2022-12-26T03:57:38.000Z,98028
2022-12-26T03:59:05.000Z,98026
2022-12-26T04:01:11.000Z,98019
2022-12-26T04:02:37.000Z,98014
2022-12-26T04:04:44.000Z,98014
2022-12-26T04:06:10.000Z,98016
2022-12-26T04:08:17.000Z,98012
2022-12-26T04:09:45.000Z,98020
2022-12-26T04:11:51.000Z,98034
2022-12-26T04:14:42.000Z,98025
2022-12-26T04:16:09.000Z,98024
2022-12-26T04:18:15.000Z,98015
2022-12-26T04:19:41.000Z,98013
2022-12-26T04:21:47.000Z,98014
2022-12-26T04:23:14.000Z,98021
2022-12-26T04:25:20.000Z,98023
2022-12-26T04:27:17.000Z,98018
2022-12-26T04:29:23.000Z,98014
2022-12-26T04:30:49.000Z,98012
2022-12-26T04:32:55.000Z,98011
2022-12-26T04:34:22.000Z,98014
2022-12-26T04:36:28.000Z,98008
2022-12-26T04:37:55.000Z,98002
2022-12-26T04:40:01.000Z,98007
2022-12-26T04:41:27.000Z,98015
2022-12-26T04:43:33.000Z,98016
2022-12-26T04:45:17.000Z,98007
2022-12-26T04:47:23.000Z,98005
2022-12-26T04:48:50.000Z,98000
2022-12-26T04:50:56.000Z,98008
2022-12-26T04:53:47.000Z,98010
2022-12-26T04:55:14.000Z,98018
2022-12-26T04:57:20.000Z,98022
2022-12-26T04:58:46.000Z,98019
2022-12-26T05:00:52.000Z,98010
2022-12-26T05:02:19.000Z,98014
2022-12-26T05:04:25.000Z,98010
2022-12-26T05:05:52.000Z,98014
2022-12-26T05:07:58.000Z,98005
2022-12-26T05:09:24.000Z,98020
2022-12-26T05:11:30.000Z,98025
2022-12-26T05:12:57.000Z,98022
2022-12-26T05:15:03.000Z,98027
2022-12-26T05:16:30.000Z,98039
2022-12-26T05:18:36.000Z,98036
2022-12-26T05:20:02.000Z,98038
2022-12-26T05:22:09.000Z,98038
2022-12-26T05:23:35.000Z,98043
2022-12-26T05:25:41.000Z,98053
2022-12-26T05:27:08.000Z,98038
2022-12-26T05:29:14.000Z,98033
2022-12-26T05:32:05.000Z,98024
2022-12-26T05:33:31.000Z,98033
2022-12-26T05:35:38.000Z,98022
2022-12-26T05:37:04.000Z,98015
2022-12-26T05:39:10.000Z,98009
2022-12-26T05:40:37.000Z,98020
2022-12-26T05:42:43.000Z,98023
2022-12-26T05:44:09.000Z,98030
2022-12-26T05:46:15.000Z,98037
2022-12-26T05:47:42.000Z,98047
2022-12-26T05:49:55.000Z,98033
2022-12-26T05:51:22.000Z,98027
2022-12-26T05:53:28.000Z,98011
2022-12-26T05:54:54.000Z,98013
2022-12-26T05:57:01.000Z,98027
2022-12-26T05:58:27.000Z,98025
2022-12-26T06:00:33.000Z,98025
2022-12-26T06:02:00.000Z,98027
2022-12-26T06:04:06.000Z,98028
2022-12-26T06:05:33.000Z,98022
2022-12-26T06:07:39.000Z,98032
2022-12-26T06:10:30.000Z,98018
2022-12-26T06:11:57.000Z,98010
2022-12-26T06:14:03.000Z,98009
2022-12-26T06:15:29.000Z,98017
2022-12-26T06:17:35.000Z,98026
2022-12-26T06:19:02.000Z,98033
2022-12-26T06:21:08.000Z,98050
2022-12-26T06:22:35.000Z,98059
2022-12-26T06:24:41.000Z,98057
2022-12-26T06:26:07.000Z,98065
2022-12-26T06:28:13.000Z,98057
2022-12-26T06:29:40.000Z,98061
2022-12-26T06:31:46.000Z,98058
2022-12-26T06:33:13.000Z,98048
2022-12-26T06:35:19.000Z,98036
2022-12-26T06:36:45.000Z,98035
2022-12-26T06:38:52.000Z,98036
2022-12-26T06:40:18.000Z,98046
2022-12-26T06:42:24.000Z,98050
2022-12-26T06:43:51.000Z,98041
2022-12-26T06:45:57.000Z,98043
2022-12-26T06:48:48.000Z,98052
2022-12-26T06:50:15.000Z,98067
2022-12-26T06:52:21.000Z,98069
2022-12-26T06:53:47.000Z,98075
2022-12-26T06:55:53.000Z,98073
2022-12-26T06:57:20.000Z,98078
2022-12-26T06:59:26.000Z,98087
2022-12-26T07:00:52.000Z,98075
2022-12-26T07:02:58.000Z,98069
2022-12-26T07:04:25.000Z,98072
2022-12-26T07:06:31.000Z,98080
2022-12-26T07:07:58.000Z,98077
2022-12-26T07:10:04.000Z,98079
2022-12-26T07:11:30.000Z,98077
2022-12-26T07:13:36.000Z,98078
2022-12-26T07:15:03.000Z,98085
2022-12-26T07:17:09.000Z,98084
2022-12-26T07:18:36.000Z,98088
2022-12-26T07:20:42.000Z,98105
2022-12-26T07:22:08.000Z,98109
2022-12-26T07:24:14.000Z,98116
2022-12-26T07:27:05.000Z,98120
2022-12-26T07:28:32.000Z,98117
2022-12-26T07:30:38.000Z,98109
2022-12-26T07:32:05.000Z,98102
2022-12-26T07:34:11.000Z,98097
2022-12-26T07:35:37.000Z,98089
2022-12-26T07:37:43.000Z,98089
2022-12-26T07:39:10.000Z,98094
2022-12-26T07:41:16.000Z,98097
2022-12-26T07:42:42.000Z,98113
2022-12-26T07:44:49.000Z,98124
2022-12-26T07:46:15.000Z,98119
2022-12-26T07:48:21.000Z,98105
2022-12-26T07:49:48.000Z,98103
2022-12-26T07:51:54.000Z,98095
2022-12-26T07:53:21.000Z,98088
2022-12-26T07:55:27.000Z,98084
2022-12-26T07:56:53.000Z,98080
2022-12-26T07:59:21.000Z,98066
2022-12-26T08:00:47.000Z,98072
2022-12-26T08:02:53.000Z,98075
2022-12-26T08:05:45.000Z,98085
2022-12-26T08:07:12.000Z,98087
2022-12-26T08:09:18.000Z,98095
2022-12-26T08:10:44.000Z,98101
2022-12-26T08:12:50.000Z,98109
2022-12-26T08:14:17.000Z,98113
2022-12-26T08:16:23.000Z,98115
2022-12-26T08:17:50.000Z,98112
2022-12-26T08:19:56.000Z,98114
2022-12-26T08:21:23.000Z,98118
2022-12-26T08:23:29.000Z,98129
2022-12-26T08:24:55.000Z,98133
2022-12-26T08:27:01.000Z,98138
2022-12-26T08:28:28.000Z,98136
2022-12-26T08:30:34.000Z,98156
2022-12-26T08:32:01.000Z,98161
2022-12-26T08:34:07.000Z,98165
2022-12-26T08:35:33.000Z,98156
2022-12-26T08:37:39.000Z,98155
2022-12-26T08:39:06.000Z,98147
2022-12-26T08:41:12.000Z,98149
2022-12-26T08:44:03.000Z,98150
2022-12-26T08:45:53.000Z,98142
2022-12-26T08:47:59.000Z,98152
2022-12-26T08:49:27.000Z,98149
2022-12-26T08:51:33.000Z,98128
2022-12-26T08:52:59.000Z,98112
2022-12-26T08:55:05.000Z,98118
2022-12-26T08:56:32.000Z,98115
2022-12-26T08:58:38.000Z,98101
2022-12-26T09:00:04.000Z,98100
2022-12-26T09:02:10.000Z,98123
2022-12-26T09:03:37.000Z,98126
2022-12-26T09:05:43.000Z,98127
2022-12-26T09:07:10.000Z,98132
2022-12-26T09:09:16.000Z,98132
2022-12-26T09:10:43.000Z,98136
2022-12-26T09:12:49.000Z,98138
2022-12-26T09:14:15.000Z,98148
2022-12-26T09:16:21.000Z,98163
2022-12-26T09:17:48.000Z,98168
2022-12-26T09:19:54.000Z,98165
2022-12-26T09:22:45.000Z,98170
2022-12-26T09:24:12.000Z,98174
2022-12-26T09:26:18.000Z,98181
2022-12-26T09:27:44.000Z,98171
2022-12-26T09:29:50.000Z,98159
2022-12-26T09:31:17.000Z,98175
2022-12-26T09:33:23.000Z,98185
2022-12-26T09:34:50.000Z,98184
2022-12-26T09:36:56.000Z,98173
2022-12-26T09:38:22.000Z,98176
2022-12-26T09:40:28.000Z,98181
2022-12-26T09:41:55.000Z,98186
2022-12-26T09:44:01.000Z,98185
2022-12-26T09:45:28.000Z,98187
2022-12-26T09:47:34.000Z,98203
2022-12-26T09:49:00.000Z,98205
2022-12-26T09:51:06.000Z,98219
2022-12-26T09:52:33.000Z,98213
2022-12-26T09:54:39.000Z,98217
2022-12-26T09:56:05.000Z,98202
2022-12-26T09:58:12.000Z,98207
2022-12-26T10:01:03.000Z,98200
2022-12-26T10:02:29.000Z,98199
2022-12-26T10:04:36.000Z,98208
2022-12-26T10:06:02.000Z,98210
2022-12-26T10:08:08.000Z,98208
2022-12-26T10:09:35.000Z,98198
2022-12-26T10:11:41.000Z,98189
2022-12-26T10:13:07.000Z,98187
2022-12-26T10:15:14.000Z,98210
2022-12-26T10:16:40.000Z,98215
2022-12-26T10:18:46.000Z,98204
2022-12-26T10:20:13.000Z,98195
2022-12-26T10:22:19.000Z,98186
2022-12-26T10:23:45.000Z,98209
2022-12-26T10:25:51.000Z,98225
2022-12-26T10:27:18.000Z,98214
2022-12-26T10:29:24.000Z,98202
2022-12-26T10:30:50.000Z,98215
2022-12-26T10:32:57.000Z,98198
2022-12-26T10:34:23.000Z,98198
2022-12-26T10:36:29.000Z,98192
2022-12-26T10:39:20.000Z,98197
2022-12-26T10:40:47.000Z,98199
2022-12-26T10:42:53.000Z,98203
2022-12-26T10:44:19.000Z,98193
2022-12-26T10:46:33.000Z,98190
2022-12-26T10:48:00.000Z,98191
2022-12-26T10:50:06.000Z,98194
2022-12-26T10:51:32.000Z,98200
2022-12-26T10:53:38.000Z,98201
2022-12-26T10:55:05.000Z,98191
2022-12-26T10:57:37.000Z,98192
2022-12-26T10:59:03.000Z,98179
2022-12-26T11:01:09.000Z,98199
2022-12-26T11:02:36.000Z,98195
2022-12-26T11:04:42.000Z,98206
2022-12-26T11:06:47.000Z,98223
2022-12-26T11:08:54.000Z,98209
2022-12-26T11:10:20.000Z,98213
2022-12-26T11:12:26.000Z,98200
2022-12-26T11:13:53.000Z,98211
2022-12-26T11:16:07.000Z,98212
2022-12-26T11:18:59.000Z,98215
2022-12-26T11:20:25.000Z,98219
2022-12-26T11:22:31.000Z,98213
2022-12-26T11:23:58.000Z,98226
2022-12-26T11:26:04.000Z,98224
2022-12-26T11:27:30.000Z,98226
2022-12-26T11:29:36.000Z,98223
2022-12-26T11:31:03.000Z,98224
2022-12-26T11:33:09.000Z,98211
2022-12-26T11:34:41.000Z,98218
2022-12-26T11:36:47.000Z,98216
2022-12-26T11:38:14.000Z,98213
2022-12-26T11:40:20.000Z,98213
2022-12-26T11:41:46.000Z,98216
2022-12-26T11:43:52.000Z,98224
2022-12-26T11:45:19.000Z,98226
2022-12-26T11:47:25.000Z,98226
2022-12-26T11:48:52.000Z,98224
2022-12-26T11:50:58.000Z,98220
2022-12-26T11:52:24.000Z,98221
2022-12-26T11:54:30.000Z,98226
2022-12-26T11:57:22.000Z,98228
2022-12-26T11:58:48.000Z,98231
2022-12-26T12:00:55.000Z,98227
2022-12-26T12:02:21.000Z,98226
2022-12-26T12:04:27.000Z,98230
2022-12-26T12:05:54.000Z,98228
2022-12-26T12:08:00.000Z,98229
2022-12-26T12:09:27.000Z,98230
2022-12-26T12:11:33.000Z,98233
2022-12-26T12:13:00.000Z,98227
2022-12-26T12:15:06.000Z,98229
2022-12-26T12:16:32.000Z,98223
2022-12-26T12:18:39.000Z,98226
2022-12-26T12:20:05.000Z,98226
2022-12-26T12:22:11.000Z,98224
2022-12-26T12:23:38.000Z,98221
2022-12-26T12:25:44.000Z,98229
2022-12-26T12:27:10.000Z,98223
2022-12-26T12:29:17.000Z,98224
2022-12-26T12:30:43.000Z,98226
2022-12-26T12:32:50.000Z,98224
2022-12-26T12:35:48.000Z,98226
2022-12-26T12:37:14.000Z,98212
2022-12-26T12:39:20.000Z,98217
2022-12-26T12:40:47.000Z,98214
2022-12-26T12:42:53.000Z,98214
2022-12-26T12:44:19.000Z,98213
2022-12-26T12:46:26.000Z,98213
2022-12-26T12:47:52.000Z,98211
2022-12-26T12:49:58.000Z,98214
2022-12-26T12:51:25.000Z,98210
2022-12-26T12:53:31.000Z,98204
2022-12-26T12:54:57.000Z,98202
2022-12-26T12:57:04.000Z,98204
2022-12-26T12:58:30.000Z,98203
2022-12-26T13:00:36.000Z,98198
2022-12-26T13:02:03.000Z,98200
2022-12-26T13:04:16.000Z,98189
2022-12-26T13:05:42.000Z,98187
2022-12-26T13:07:48.000Z,98181
2022-12-26T13:09:15.000Z,98181
2022-12-26T13:11:21.000Z,98178
2022-12-26T13:14:12.000Z,98181
2022-12-26T13:15:39.000Z,98179
2022-12-26T13:17:45.000Z,98184
2022-12-26T13:19:11.000Z,98185
2022-12-26T13:21:17.000Z,98186
2022-12-26T13:22:44.000Z,98184
2022-12-26T13:24:50.000Z,98182
2022-12-26T13:26:17.000Z,98180
2022-12-26T13:28:23.000Z,98183
2022-12-26T13:29:49.000Z,98178
2022-12-26T13:31:55.000Z,98178
2022-12-26T13:33:22.000Z,98178
2022-12-26T13:35:28.000Z,98178
2022-12-26T13:36:54.000Z,98175
2022-12-26T13:39:01.000Z,98172
2022-12-26T13:40:27.000Z,98173
2022-12-26T13:42:33.000Z,98164
2022-12-26T13:44:00.000Z,98169
2022-12-26T13:46:07.000Z,98168
2022-12-26T13:47:33.000Z,98174
2022-12-26T13:49:40.000Z,98176
2022-12-26T13:52:30.000Z,98178
2022-12-26T13:53:57.000Z,98181
2022-12-26T13:56:03.000Z,98174
2022-12-26T13:57:29.000Z,98178
2022-12-26T13:59:35.000Z,98170
2022-12-26T14:01:02.000Z,98171
2022-12-26T14:03:08.000Z,98175
2022-12-26T14:04:45.000Z,98178
2022-12-26T14:06:51.000Z,98179
2022-12-26T14:08:18.000Z,98188
2022-12-26T14:10:24.000Z,98187
2022-12-26T14:11:51.000Z,98185
2022-12-26T14:13:57.000Z,98181
2022-12-26T14:15:23.000Z,98181
2022-12-26T14:17:29.000Z,98182
2022-12-26T14:18:56.000Z,98185
2022-12-26T14:21:02.000Z,98187
2022-12-26T14:22:29.000Z,98180
2022-12-26T14:24:35.000Z,98178
2022-12-26T14:26:01.000Z,98180
2022-12-26T14:28:07.000Z,98174
2022-12-26T14:30:58.000Z,98170
2022-12-26T14:32:25.000Z,98173
2022-12-26T14:34:31.000Z,98172
2022-12-26T14:35:58.000Z,98181
2022-12-26T14:38:04.000Z,98189
2022-12-26T14:39:30.000Z,98190
2022-12-26T14:41:37.000Z,98191
2022-12-26T14:43:03.000Z,98193
2022-12-26T14:45:09.000Z,98193
2022-12-26T14:46:36.000Z,98189
2022-12-26T14:48:42.000Z,98179
2022-12-26T14:50:08.000Z,98182
2022-12-26T14:52:15.000Z,98178
2022-12-26T14:53:41.000Z,98183
2022-12-26T14:55:47.000Z,98187
2022-12-26T14:57:14.000Z,98188
2022-12-26T14:59:20.000Z,98198
2022-12-26T15:00:46.000Z,98195
2022-12-26T15:02:53.000Z,98193
2022-12-26T15:04:19.000Z,98194
2022-12-26T15:06:25.000Z,98190
2022-12-26T15:09:17.000Z,98192
2022-12-26T15:10:43.000Z,98194
2022-12-26T15:12:49.000Z,98198
2022-12-26T15:14:24.000Z,98194
2022-12-26T15:16:31.000Z,98197
2022-12-26T15:17:57.000Z,98204
2022-12-26T15:20:03.000Z,98212
2022-12-26T15:21:30.000Z,98213
2022-12-26T15:23:36.000Z,98229
2022-12-26T15:25:03.000Z,98222
2022-12-26T15:27:26.000Z,98216
2022-12-26T15:28:52.000Z,98225
2022-12-26T15:30:59.000Z,98217
2022-12-26T15:32:25.000Z,98216
2022-12-26T15:34:31.000Z,98216
2022-12-26T15:35:58.000Z,98214
2022-12-26T15:38:09.000Z,98222
2022-12-26T15:39:36.000Z,98223
2022-12-26T15:41:42.000Z,98230
2022-12-26T15:43:08.000Z,98232
2022-12-26T15:45:14.000Z,98232
2022-12-26T15:48:06.000Z,98229
2022-12-26T15:49:32.000Z,98234
2022-12-26T15:51:38.000Z,98238
2022-12-26T15:53:05.000Z,98239
2022-12-26T15:55:11.000Z,98236
2022-12-26T15:56:37.000Z,98247
2022-12-26T15:58:44.000Z,98250
2022-12-26T16:00:10.000Z,98253
2022-12-26T16:02:16.000Z,98247
2022-12-26T16:03:43.000Z,98251
2022-12-26T16:05:49.000Z,98256
2022-12-26T16:07:16.000Z,98244
2022-12-26T16:09:22.000Z,98240
2022-12-26T16:10:48.000Z,98238
2022-12-26T16:13:01.000Z,98244
2022-12-26T16:14:28.000Z,98245
2022-12-26T16:16:34.000Z,98243
2022-12-26T16:18:01.000Z,98236
2022-12-26T16:20:07.000Z,98237
2022-12-26T16:21:33.000Z,98234
2022-12-26T16:23:39.000Z,98227
2022-12-26T16:26:30.000Z,98220
2022-12-26T16:27:57.000Z,98219
2022-12-26T16:30:03.000Z,98214
2022-12-26T16:31:38.000Z,98216
2022-12-26T16:33:44.000Z,98218
2022-12-26T16:35:10.000Z,98219
2022-12-26T16:37:16.000Z,98224
2022-12-26T16:38:43.000Z,98215
2022-12-26T16:40:49.000Z,98218
2022-12-26T16:42:15.000Z,98222
2022-12-26T16:44:22.000Z,98230
2022-12-26T16:45:56.000Z,98233
2022-12-26T16:48:02.000Z,98242
2022-12-26T16:49:29.000Z,98247
2022-12-26T16:51:35.000Z,98247
2022-12-26T16:53:01.000Z,98254
2022-12-26T16:55:07.000Z,98298
2022-12-26T16:56:34.000Z,98295
2022-12-26T16:58:40.000Z,98295
2022-12-26T17:00:06.000Z,98293
2022-12-26T17:02:12.000Z,98294
2022-12-26T17:05:04.000Z,98308
2022-12-26T17:06:30.000Z,98308
2022-12-26T17:08:36.000Z,98335
2022-12-26T17:10:03.000Z,98344
2022-12-26T17:12:13.000Z,98339
2022-12-26T17:13:40.000Z,98346
2022-12-26T17:15:46.000Z,98342
2022-12-26T17:17:13.000Z,98346
2022-12-26T17:19:19.000Z,98340
2022-12-26T17:20:45.000Z,98332
2022-12-26T17:22:51.000Z,98324
2022-12-26T17:24:18.000Z,98323
2022-12-26T17:26:24.000Z,98327
2022-12-26T17:27:51.000Z,98324
2022-12-26T17:29:57.000Z,98325
2022-12-26T17:31:23.000Z,98331
2022-12-26T17:33:30.000Z,98324
2022-12-26T17:34:56.000Z,98319
2022-12-26T17:37:02.000Z,98330
2022-12-26T17:38:46.000Z,98333
2022-12-26T17:40:52.000Z,98332
2022-12-26T17:43:43.000Z,98332
2022-12-26T17:45:10.000Z,98337
2022-12-26T17:47:16.000Z,98331
2022-12-26T17:48:43.000Z,98334
2022-12-26T17:50:49.000Z,98340
2022-12-26T17:52:15.000Z,98331
2022-12-26T17:54:21.000Z,98325
2022-12-26T17:55:48.000Z,98328
2022-12-26T17:57:54.000Z,98340
2022-12-26T17:59:21.000Z,98345
2022-12-26T18:01:27.000Z,98343
2022-12-26T18:02:54.000Z,98336
2022-12-26T18:05:00.000Z,98347
2022-12-26T18:06:27.000Z,98358
2022-12-26T18:08:33.000Z,98366
2022-12-26T18:09:59.000Z,98363
2022-12-26T18:12:05.000Z,98363
2022-12-26T18:13:32.000Z,98368
2022-12-26T18:15:38.000Z,98363
2022-12-26T18:17:04.000Z,98360
2022-12-26T18:19:11.000Z,98368
2022-12-26T18:22:02.000Z,98365
2022-12-26T18:23:29.000Z,98373
2022-12-26T18:25:35.000Z,98368
2022-12-26T18:27:01.000Z,98375
2022-12-26T18:29:08.000Z,98377
2022-12-26T18:30:34.000Z,98381
2022-12-26T18:32:40.000Z,98384
2022-12-26T18:34:07.000Z,98385
2022-12-26T18:36:13.000Z,98386
2022-12-26T18:37:39.000Z,98390
2022-12-26T18:39:45.000Z,98387
2022-12-26T18:41:12.000Z,98395
2022-12-26T18:43:18.000Z,98400
2022-12-26T18:44:45.000Z,98404
2022-12-26T18:46:51.000Z,98399
2022-12-26T18:48:17.000Z,98400
2022-12-26T18:50:23.000Z,98400
2022-12-26T18:51:50.000Z,98400
2022-12-26T18:53:56.000Z,98404
2022-12-26T18:55:22.000Z,98406
2022-12-26T18:57:29.000Z,98409
2022-12-26T19:00:20.000Z,98423
2022-12-26T19:01:46.000Z,98424
2022-12-26T19:03:53.000Z,98424
2022-12-26T19:05:19.000Z,98424
2022-12-26T19:07:25.000Z,98422
2022-12-26T19:08:52.000Z,98432
2022-12-26T19:10:58.000Z,98435
2022-12-26T19:12:24.000Z,98441
2022-12-26T19:14:31.000Z,98443
2022-12-26T19:15:57.000Z,98440
2022-12-26T19:18:03.000Z,98442
2022-12-26T19:19:30.000Z,98440
2022-12-26T19:21:36.000Z,98448
2022-12-26T19:23:02.000Z,98447
2022-12-26T19:25:08.000Z,98449
2022-12-26T19:26:35.000Z,98450
2022-12-26T19:28:41.000Z,98452
2022-12-26T19:30:07.000Z,98454
2022-12-26T19:32:14.000Z,98457
2022-12-26T19:33:40.000Z,98461
2022-12-26T19:35:46.000Z,98468
2022-12-26T19:38:37.000Z,98469
2022-12-26T19:40:04.000Z,98469
2022-12-26T19:42:10.000Z,98478
2022-12-26T19:43:37.000Z,98484
2022-12-26T19:45:43.000Z,98483
2022-12-26T19:47:09.000Z,98487
2022-12-26T19:49:18.000Z,98482
2022-12-26T19:50:45.000Z,98479
2022-12-26T19:52:51.000Z,98486
2022-12-26T19:54:17.000Z,98491
2022-12-26T19:56:24.000Z,98499
2022-12-26T19:57:50.000Z,98506
2022-12-26T19:59:56.000Z,98519
2022-12-26T20:01:23.000Z,98526
2022-12-26T20:03:29.000Z,98531
2022-12-26T20:04:55.000Z,98531
2022-12-26T20:07:02.000Z,98538
2022-12-26T20:08:28.000Z,98534
2022-12-26T20:10:34.000Z,98540
2022-12-26T20:12:01.000Z,98552
2022-12-26T20:14:07.000Z,98561
2022-12-26T20:16:58.000Z,98573
2022-12-26T20:18:34.000Z,98577
2022-12-26T20:20:40.000Z,98581
2022-12-26T20:22:07.000Z,98578
2022-12-26T20:24:13.000Z,98584
2022-12-26T20:25:39.000Z,98579
2022-12-26T20:27:45.000Z,98580
2022-12-26T20:29:12.000Z,98588
2022-12-26T20:31:18.000Z,98579
2022-12-26T20:32:45.000Z,98583
2022-12-26T20:34:51.000Z,98582
2022-12-26T20:36:17.000Z,98588
2022-12-26T20:38:23.000Z,98594
2022-12-26T20:39:50.000Z,98603
2022-12-26T20:41:56.000Z,98603
2022-12-26T20:43:23.000Z,98610
2022-12-26T20:45:29.000Z,98614
2022-12-26T20:46:55.000Z,98621
2022-12-26T20:49:01.000Z,98623
2022-12-26T20:50:28.000Z,98625
2022-12-26T20:52:34.000Z,98632
2022-12-26T20:55:25.000Z,98630
2022-12-26T20:56:51.000Z,98638
2022-12-26T20:58:58.000Z,98643
2022-12-26T21:00:24.000Z,98641
2022-12-26T21:02:30.000Z,98648
2022-12-26T21:03:57.000Z,98651
2022-12-26T21:06:03.000Z,98650
2022-12-26T21:07:30.000Z,98651
2022-12-26T21:09:36.000Z,98658
2022-12-26T21:11:12.000Z,98661
2022-12-26T21:13:18.000Z,98670
2022-12-26T21:14:44.000Z,98682
2022-12-26T21:16:50.000Z,98689
2022-12-26T21:18:17.000Z,98694
2022-12-26T21:20:23.000Z,98695
2022-12-26T21:21:49.000Z,98697
2022-12-26T21:23:56.000Z,98708
2022-12-26T21:25:22.000Z,98714
2022-12-26T21:27:28.000Z,98718
2022-12-26T21:28:55.000Z,98735
2022-12-26T21:31:01.000Z,98738
2022-12-26T21:33:52.000Z,98755
2022-12-26T21:35:19.000Z,98752
2022-12-26T21:37:25.000Z,98759
2022-12-26T21:38:51.000Z,98754
2022-12-26T21:40:57.000Z,98760
2022-12-26T21:42:24.000Z,98769
2022-12-26T21:44:30.000Z,98782
2022-12-26T21:45:56.000Z,98780
2022-12-26T21:48:07.000Z,98784
2022-12-26T21:49:33.000Z,98788
2022-12-26T21:51:39.000Z,98800
2022-12-26T21:53:06.000Z,98795
2022-12-26T21:55:12.000Z,98808
2022-12-26T21:56:38.000Z,98808
2022-12-26T21:58:45.000Z,98817
2022-12-26T22:00:11.000Z,98825
2022-12-26T22:02:17.000Z,98830
2022-12-26T22:03:44.000Z,98836
2022-12-26T22:05:50.000Z,98837
2022-12-26T22:07:17.000Z,98847
2022-12-26T22:09:23.000Z,98855
2022-12-26T22:12:14.000Z,98867
2022-12-26T22:13:41.000Z,98868
2022-12-26T22:15:47.000Z,98872
2022-12-26T22:17:13.000Z,98878
2022-12-26T22:19:19.000Z,98878
2022-12-26T22:20:46.000Z,98877
2022-12-26T22:22:52.000Z,98887
2022-12-26T22:24:19.000Z,98885
2022-12-26T22:26:25.000Z,98887
2022-12-26T22:27:51.000Z,98894
2022-12-26T22:29:57.000Z,98899
2022-12-26T22:31:24.000Z,98900
2022-12-26T22:33:30.000Z,98905
2022-12-26T22:34:57.000Z,98906
2022-12-26T22:37:03.000Z,98911
2022-12-26T22:38:29.000Z,98915
2022-12-26T22:40:35.000Z,98918
2022-12-26T22:42:02.000Z,98920
2022-12-26T22:44:08.000Z,98927
2022-12-26T22:45:35.000Z,98930
2022-12-26T22:47:41.000Z,98936
2022-12-26T22:50:32.000Z,98944
2022-12-26T22:51:58.000Z,98950
2022-12-26T22:54:05.000Z,98956
2022-12-26T22:55:31.000Z,98959
2022-12-26T22:57:37.000Z,98963
2022-12-26T22:59:04.000Z,98968
2022-12-26T23:01:10.000Z,98973
2022-12-26T23:02:37.000Z,98975
2022-12-26T23:04:43.000Z,98982
2022-12-26T23:06:09.000Z,98978
2022-12-26T23:08:15.000Z,98983
2022-12-26T23:09:42.000Z,98985
2022-12-26T23:11:48.000Z,98989
2022-12-26T23:13:15.000Z,98997
2022-12-26T23:15:21.000Z,99001
2022-12-26T23:16:47.000Z,98997
2022-12-26T23:18:53.000Z,98997
2022-12-26T23:20:20.000Z,98994
2022-12-26T23:22:26.000Z,98994
2022-12-26T23:23:53.000Z,98995
2022-12-26T23:25:59.000Z,98993
2022-12-26T23:28:50.000Z,98990
2022-12-26T23:30:17.000Z,98991
2022-12-26T23:32:23.000Z,98997
2022-12-26T23:33:49.000Z,98996
2022-12-26T23:35:55.000Z,98997
2022-12-26T23:37:22.000Z,98996